sensor_id;sensor_type;location;lat;lon;timestamp;P1;durP1;ratioP1;P2;durP2;ratioP2
60502;SDS011;51448;51.660;5.824;2023-05-20T00:02:02;8.32;;;3.30;;
60502;SDS011;51448;51.660;5.824;2023-05-20T00:04:50;8.98;;;3.25;;
60502;SDS011;51448;51.660;5.824;2023-05-20T00:07:38;7.82;;;3.20;;
60502;SDS011;51448;51.660;5.824;2023-05-20T00:10:26;10.70;;;3.80;;
60502;SDS011;51448;51.660;5.824;2023-05-20T00:13:14;8.13;;;3.10;;
60502;SDS011;51448;51.660;5.824;2023-05-20T00:16:02;8.98;;;3.67;;
60502;SDS011;51448;51.660;5.824;2023-05-20T00:18:50;7.75;;;3.38;;
60502;SDS011;51448;51.660;5.824;2023-05-20T00:21:38;10.07;;;3.70;;
60502;SDS011;51448;51.660;5.824;2023-05-20T00:24:26;8.82;;;3.30;;
60502;SDS011;51448;51.660;5.824;2023-05-20T00:27:14;8.20;;;3.47;;
60502;SDS011;51448;51.660;5.824;2023-05-20T00:30:02;7.85;;;4.00;;
60502;SDS011;51448;51.660;5.824;2023-05-20T00:32:50;11.80;;;3.63;;
60502;SDS011;51448;51.660;5.824;2023-05-20T00:35:38;11.25;;;3.67;;
60502;SDS011;51448;51.660;5.824;2023-05-20T00:38:26;8.85;;;3.53;;
60502;SDS011;51448;51.660;5.824;2023-05-20T00:41:14;8.85;;;3.53;;
60502;SDS011;51448;51.660;5.824;2023-05-20T00:44:02;8.80;;;3.55;;
60502;SDS011;51448;51.660;5.824;2023-05-20T00:46:50;9.23;;;3.80;;
60502;SDS011;51448;51.660;5.824;2023-05-20T00:49:38;9.52;;;4.03;;
60502;SDS011;51448;51.660;5.824;2023-05-20T00:52:28;11.30;;;3.95;;
60502;SDS011;51448;51.660;5.824;2023-05-20T00:55:22;10.52;;;4.05;;
60502;SDS011;51448;51.660;5.824;2023-05-20T00:58:10;8.20;;;4.17;;
60502;SDS011;51448;51.660;5.824;2023-05-20T01:00:58;7.80;;;3.72;;
60502;SDS011;51448;51.660;5.824;2023-05-20T01:03:46;9.43;;;4.28;;
60502;SDS011;51448;51.660;5.824;2023-05-20T01:06:35;9.77;;;3.92;;
60502;SDS011;51448;51.660;5.824;2023-05-20T01:09:24;6.72;;;3.80;;
60502;SDS011;51448;51.660;5.824;2023-05-20T01:12:17;9.15;;;4.18;;
60502;SDS011;51448;51.660;5.824;2023-05-20T01:15:15;9.35;;;4.00;;
60502;SDS011;51448;51.660;5.824;2023-05-20T01:18:05;9.90;;;4.00;;
60502;SDS011;51448;51.660;5.824;2023-05-20T01:23:48;13.90;;;4.07;;
60502;SDS011;51448;51.660;5.824;2023-05-20T01:26:36;8.65;;;3.90;;
60502;SDS011;51448;51.660;5.824;2023-05-20T01:29:24;12.35;;;4.72;;
60502;SDS011;51448;51.660;5.824;2023-05-20T01:32:25;10.43;;;4.38;;
60502;SDS011;51448;51.660;5.824;2023-05-20T01:35:21;10.50;;;4.70;;
60502;SDS011;51448;51.660;5.824;2023-05-20T01:38:10;11.05;;;4.55;;
60502;SDS011;51448;51.660;5.824;2023-05-20T01:41:00;11.77;;;4.75;;
60502;SDS011;51448;51.660;5.824;2023-05-20T01:43:52;8.50;;;3.90;;
60502;SDS011;51448;51.660;5.824;2023-05-20T01:46:47;9.30;;;4.45;;
60502;SDS011;51448;51.660;5.824;2023-05-20T01:49:36;8.85;;;3.92;;
60502;SDS011;51448;51.660;5.824;2023-05-20T01:52:24;9.88;;;3.83;;
60502;SDS011;51448;51.660;5.824;2023-05-20T01:55:12;8.05;;;3.83;;
60502;SDS011;51448;51.660;5.824;2023-05-20T01:58:01;9.15;;;3.72;;
60502;SDS011;51448;51.660;5.824;2023-05-20T02:00:49;11.55;;;4.05;;
60502;SDS011;51448;51.660;5.824;2023-05-20T02:03:38;10.27;;;3.95;;
60502;SDS011;51448;51.660;5.824;2023-05-20T02:06:25;8.70;;;4.60;;
60502;SDS011;51448;51.660;5.824;2023-05-20T02:09:14;8.95;;;4.10;;
60502;SDS011;51448;51.660;5.824;2023-05-20T02:12:04;13.00;;;4.80;;
60502;SDS011;51448;51.660;5.824;2023-05-20T02:14:54;9.93;;;4.38;;
60502;SDS011;51448;51.660;5.824;2023-05-20T02:17:42;12.18;;;4.90;;
60502;SDS011;51448;51.660;5.824;2023-05-20T02:20:30;10.02;;;4.60;;
60502;SDS011;51448;51.660;5.824;2023-05-20T02:23:20;10.13;;;4.20;;
60502;SDS011;51448;51.660;5.824;2023-05-20T02:26:08;9.35;;;4.40;;
60502;SDS011;51448;51.660;5.824;2023-05-20T02:28:56;9.07;;;4.43;;
60502;SDS011;51448;51.660;5.824;2023-05-20T02:31:44;13.25;;;4.60;;
60502;SDS011;51448;51.660;5.824;2023-05-20T02:34:32;14.15;;;4.55;;
60502;SDS011;51448;51.660;5.824;2023-05-20T02:37:20;10.20;;;3.97;;
60502;SDS011;51448;51.660;5.824;2023-05-20T02:40:09;10.85;;;4.80;;
60502;SDS011;51448;51.660;5.824;2023-05-20T02:42:59;8.90;;;4.40;;
60502;SDS011;51448;51.660;5.824;2023-05-20T02:45:48;10.98;;;4.50;;
60502;SDS011;51448;51.660;5.824;2023-05-20T02:48:36;9.73;;;5.25;;
60502;SDS011;51448;51.660;5.824;2023-05-20T02:51:24;9.63;;;4.70;;
60502;SDS011;51448;51.660;5.824;2023-05-20T02:54:12;8.90;;;4.25;;
60502;SDS011;51448;51.660;5.824;2023-05-20T02:57:00;10.35;;;4.38;;
60502;SDS011;51448;51.660;5.824;2023-05-20T02:59:49;9.48;;;4.53;;
60502;SDS011;51448;51.660;5.824;2023-05-20T03:02:38;10.73;;;4.57;;
60502;SDS011;51448;51.660;5.824;2023-05-20T03:05:27;9.50;;;4.35;;
60502;SDS011;51448;51.660;5.824;2023-05-20T03:08:17;7.78;;;4.40;;
60502;SDS011;51448;51.660;5.824;2023-05-20T03:13:55;8.13;;;4.32;;
60502;SDS011;51448;51.660;5.824;2023-05-20T03:16:45;9.20;;;4.78;;
60502;SDS011;51448;51.660;5.824;2023-05-20T03:19:33;9.35;;;4.93;;
60502;SDS011;51448;51.660;5.824;2023-05-20T03:22:23;10.95;;;4.55;;
60502;SDS011;51448;51.660;5.824;2023-05-20T03:25:11;9.73;;;4.82;;
60502;SDS011;51448;51.660;5.824;2023-05-20T03:27:59;11.52;;;5.45;;
60502;SDS011;51448;51.660;5.824;2023-05-20T03:30:48;11.27;;;5.00;;
60502;SDS011;51448;51.660;5.824;2023-05-20T03:33:37;9.57;;;4.38;;
60502;SDS011;51448;51.660;5.824;2023-05-20T03:36:25;8.48;;;4.75;;
60502;SDS011;51448;51.660;5.824;2023-05-20T03:39:13;10.80;;;4.70;;
60502;SDS011;51448;51.660;5.824;2023-05-20T03:42:01;10.45;;;4.85;;
60502;SDS011;51448;51.660;5.824;2023-05-20T03:44:49;9.80;;;4.97;;
60502;SDS011;51448;51.660;5.824;2023-05-20T03:47:38;9.10;;;5.00;;
60502;SDS011;51448;51.660;5.824;2023-05-20T03:50:26;10.80;;;4.65;;
60502;SDS011;51448;51.660;5.824;2023-05-20T03:53:14;10.85;;;4.60;;
60502;SDS011;51448;51.660;5.824;2023-05-20T03:56:01;9.38;;;4.40;;
60502;SDS011;51448;51.660;5.824;2023-05-20T03:58:50;9.15;;;4.40;;
60502;SDS011;51448;51.660;5.824;2023-05-20T04:01:38;8.18;;;5.13;;
60502;SDS011;51448;51.660;5.824;2023-05-20T04:04:26;8.35;;;4.93;;
60502;SDS011;51448;51.660;5.824;2023-05-20T04:07:14;12.18;;;5.05;;
60502;SDS011;51448;51.660;5.824;2023-05-20T04:10:03;8.13;;;4.60;;
60502;SDS011;51448;51.660;5.824;2023-05-20T04:12:51;10.18;;;4.82;;
60502;SDS011;51448;51.660;5.824;2023-05-20T04:15:41;9.00;;;5.00;;
60502;SDS011;51448;51.660;5.824;2023-05-20T04:18:30;10.25;;;4.70;;
60502;SDS011;51448;51.660;5.824;2023-05-20T04:21:18;10.18;;;5.32;;
60502;SDS011;51448;51.660;5.824;2023-05-20T04:24:07;13.38;;;5.18;;
60502;SDS011;51448;51.660;5.824;2023-05-20T04:26:55;9.55;;;4.50;;
60502;SDS011;51448;51.660;5.824;2023-05-20T04:29:43;9.60;;;4.75;;
60502;SDS011;51448;51.660;5.824;2023-05-20T04:32:33;8.60;;;4.93;;
60502;SDS011;51448;51.660;5.824;2023-05-20T04:35:21;9.27;;;4.82;;
60502;SDS011;51448;51.660;5.824;2023-05-20T04:38:14;8.65;;;4.22;;
60502;SDS011;51448;51.660;5.824;2023-05-20T04:41:02;9.27;;;4.75;;
60502;SDS011;51448;51.660;5.824;2023-05-20T04:43:51;12.05;;;4.82;;
60502;SDS011;51448;51.660;5.824;2023-05-20T04:46:41;7.90;;;4.63;;
60502;SDS011;51448;51.660;5.824;2023-05-20T04:49:29;8.85;;;4.40;;
60502;SDS011;51448;51.660;5.824;2023-05-20T04:52:16;9.52;;;5.20;;
60502;SDS011;51448;51.660;5.824;2023-05-20T04:55:06;10.63;;;4.38;;
60502;SDS011;51448;51.660;5.824;2023-05-20T04:57:58;8.30;;;4.50;;
60502;SDS011;51448;51.660;5.824;2023-05-20T05:00:47;9.07;;;4.40;;
60502;SDS011;51448;51.660;5.824;2023-05-20T05:03:35;7.65;;;3.83;;
60502;SDS011;51448;51.660;5.824;2023-05-20T05:06:24;7.65;;;4.47;;
60502;SDS011;51448;51.660;5.824;2023-05-20T05:09:11;7.85;;;4.40;;
60502;SDS011;51448;51.660;5.824;2023-05-20T05:12:01;9.88;;;4.10;;
60502;SDS011;51448;51.660;5.824;2023-05-20T05:14:49;9.60;;;4.38;;
60502;SDS011;51448;51.660;5.824;2023-05-20T05:17:37;9.40;;;4.50;;
60502;SDS011;51448;51.660;5.824;2023-05-20T05:20:26;12.48;;;4.88;;
60502;SDS011;51448;51.660;5.824;2023-05-20T05:23:14;8.45;;;4.30;;
60502;SDS011;51448;51.660;5.824;2023-05-20T05:26:02;8.70;;;4.22;;
60502;SDS011;51448;51.660;5.824;2023-05-20T05:28:53;9.23;;;4.38;;
60502;SDS011;51448;51.660;5.824;2023-05-20T05:31:42;10.07;;;4.38;;
60502;SDS011;51448;51.660;5.824;2023-05-20T05:34:29;8.65;;;4.15;;
60502;SDS011;51448;51.660;5.824;2023-05-20T05:37:17;8.50;;;4.15;;
60502;SDS011;51448;51.660;5.824;2023-05-20T05:40:07;7.57;;;4.50;;
60502;SDS011;51448;51.660;5.824;2023-05-20T05:42:55;9.57;;;4.32;;
60502;SDS011;51448;51.660;5.824;2023-05-20T05:45:44;7.65;;;3.78;;
60502;SDS011;51448;51.660;5.824;2023-05-20T05:48:32;8.13;;;4.22;;
60502;SDS011;51448;51.660;5.824;2023-05-20T05:51:20;8.90;;;3.95;;
60502;SDS011;51448;51.660;5.824;2023-05-20T05:54:09;7.72;;;3.72;;
60502;SDS011;51448;51.660;5.824;2023-05-20T05:56:57;7.07;;;3.80;;
60502;SDS011;51448;51.660;5.824;2023-05-20T05:59:47;6.20;;;3.75;;
60502;SDS011;51448;51.660;5.824;2023-05-20T06:02:36;7.63;;;3.90;;
60502;SDS011;51448;51.660;5.824;2023-05-20T06:05:24;7.30;;;4.20;;
60502;SDS011;51448;51.660;5.824;2023-05-20T06:08:17;8.70;;;4.03;;
60502;SDS011;51448;51.660;5.824;2023-05-20T06:11:05;8.77;;;3.40;;
60502;SDS011;51448;51.660;5.824;2023-05-20T06:13:53;7.45;;;3.30;;
60502;SDS011;51448;51.660;5.824;2023-05-20T06:16:41;9.73;;;4.15;;
60502;SDS011;51448;51.660;5.824;2023-05-20T06:19:29;7.88;;;3.10;;
60502;SDS011;51448;51.660;5.824;2023-05-20T06:22:17;8.10;;;3.53;;
60502;SDS011;51448;51.660;5.824;2023-05-20T06:25:05;7.97;;;3.75;;
60502;SDS011;51448;51.660;5.824;2023-05-20T06:27:55;6.35;;;3.47;;
60502;SDS011;51448;51.660;5.824;2023-05-20T06:30:44;9.63;;;3.22;;
60502;SDS011;51448;51.660;5.824;2023-05-20T06:33:32;5.45;;;3.05;;
60502;SDS011;51448;51.660;5.824;2023-05-20T06:36:25;7.85;;;3.58;;
60502;SDS011;51448;51.660;5.824;2023-05-20T06:39:14;5.63;;;3.22;;
60502;SDS011;51448;51.660;5.824;2023-05-20T06:42:04;7.38;;;3.13;;
60502;SDS011;51448;51.660;5.824;2023-05-20T06:44:55;7.50;;;3.22;;
60502;SDS011;51448;51.660;5.824;2023-05-20T06:48:00;8.05;;;3.10;;
60502;SDS011;51448;51.660;5.824;2023-05-20T06:50:49;6.63;;;2.97;;
60502;SDS011;51448;51.660;5.824;2023-05-20T06:53:37;7.05;;;3.40;;
60502;SDS011;51448;51.660;5.824;2023-05-20T06:56:25;6.53;;;3.00;;
60502;SDS011;51448;51.660;5.824;2023-05-20T06:59:14;7.53;;;2.70;;
60502;SDS011;51448;51.660;5.824;2023-05-20T07:02:03;7.47;;;3.10;;
60502;SDS011;51448;51.660;5.824;2023-05-20T07:04:52;7.78;;;3.05;;
60502;SDS011;51448;51.660;5.824;2023-05-20T07:07:40;5.47;;;2.70;;
60502;SDS011;51448;51.660;5.824;2023-05-20T07:10:28;6.38;;;2.80;;
60502;SDS011;51448;51.660;5.824;2023-05-20T07:13:16;6.60;;;2.90;;
60502;SDS011;51448;51.660;5.824;2023-05-20T07:16:05;7.05;;;2.78;;
60502;SDS011;51448;51.660;5.824;2023-05-20T07:18:55;8.68;;;2.60;;
60502;SDS011;51448;51.660;5.824;2023-05-20T07:21:46;6.40;;;3.03;;
60502;SDS011;51448;51.660;5.824;2023-05-20T07:24:55;6.80;;;2.97;;
60502;SDS011;51448;51.660;5.824;2023-05-20T07:27:45;6.30;;;2.90;;
60502;SDS011;51448;51.660;5.824;2023-05-20T07:30:33;6.35;;;2.92;;
60502;SDS011;51448;51.660;5.824;2023-05-20T07:33:43;6.57;;;3.10;;
60502;SDS011;51448;51.660;5.824;2023-05-20T07:36:31;5.50;;;2.70;;
60502;SDS011;51448;51.660;5.824;2023-05-20T07:39:24;5.70;;;2.40;;
60502;SDS011;51448;51.660;5.824;2023-05-20T07:42:12;6.38;;;2.75;;
60502;SDS011;51448;51.660;5.824;2023-05-20T07:45:04;6.82;;;3.03;;
60502;SDS011;51448;51.660;5.824;2023-05-20T07:47:53;6.25;;;2.85;;
60502;SDS011;51448;51.660;5.824;2023-05-20T07:50:44;5.55;;;2.83;;
60502;SDS011;51448;51.660;5.824;2023-05-20T07:53:32;5.03;;;2.67;;
60502;SDS011;51448;51.660;5.824;2023-05-20T07:56:22;7.65;;;3.00;;
60502;SDS011;51448;51.660;5.824;2023-05-20T07:59:13;6.57;;;2.65;;
60502;SDS011;51448;51.660;5.824;2023-05-20T08:02:04;10.45;;;3.03;;
60502;SDS011;51448;51.660;5.824;2023-05-20T08:04:53;6.10;;;3.20;;
60502;SDS011;51448;51.660;5.824;2023-05-20T08:07:42;6.75;;;2.75;;
60502;SDS011;51448;51.660;5.824;2023-05-20T08:10:35;6.18;;;2.80;;
60502;SDS011;51448;51.660;5.824;2023-05-20T08:13:23;5.97;;;2.78;;
60502;SDS011;51448;51.660;5.824;2023-05-20T08:16:16;5.53;;;2.75;;
60502;SDS011;51448;51.660;5.824;2023-05-20T08:19:10;4.43;;;2.40;;
60502;SDS011;51448;51.660;5.824;2023-05-20T08:21:58;11.27;;;3.22;;
60502;SDS011;51448;51.660;5.824;2023-05-20T08:24:46;5.75;;;2.92;;
60502;SDS011;51448;51.660;5.824;2023-05-20T08:27:35;4.93;;;2.75;;
60502;SDS011;51448;51.660;5.824;2023-05-20T08:30:25;4.93;;;2.30;;
60502;SDS011;51448;51.660;5.824;2023-05-20T08:33:17;6.45;;;2.50;;
60502;SDS011;51448;51.660;5.824;2023-05-20T08:36:08;5.25;;;2.70;;
60502;SDS011;51448;51.660;5.824;2023-05-20T08:38:58;5.20;;;2.47;;
60502;SDS011;51448;51.660;5.824;2023-05-20T08:41:47;6.50;;;2.90;;
60502;SDS011;51448;51.660;5.824;2023-05-20T08:44:40;5.63;;;2.72;;
60502;SDS011;51448;51.660;5.824;2023-05-20T08:47:32;6.10;;;2.53;;
60502;SDS011;51448;51.660;5.824;2023-05-20T08:50:20;6.85;;;2.92;;
60502;SDS011;51448;51.660;5.824;2023-05-20T08:53:14;5.63;;;3.05;;
60502;SDS011;51448;51.660;5.824;2023-05-20T08:56:02;5.35;;;2.45;;
60502;SDS011;51448;51.660;5.824;2023-05-20T08:58:53;6.30;;;2.55;;
60502;SDS011;51448;51.660;5.824;2023-05-20T09:02:04;5.13;;;2.25;;
60502;SDS011;51448;51.660;5.824;2023-05-20T09:04:55;5.90;;;2.88;;
60502;SDS011;51448;51.660;5.824;2023-05-20T09:07:44;7.07;;;2.50;;
60502;SDS011;51448;51.660;5.824;2023-05-20T09:10:32;6.22;;;3.22;;
60502;SDS011;51448;51.660;5.824;2023-05-20T09:13:22;6.35;;;3.13;;
60502;SDS011;51448;51.660;5.824;2023-05-20T09:16:11;5.93;;;2.83;;
60502;SDS011;51448;51.660;5.824;2023-05-20T09:19:06;7.90;;;3.03;;
60502;SDS011;51448;51.660;5.824;2023-05-20T09:21:59;7.05;;;2.67;;
60502;SDS011;51448;51.660;5.824;2023-05-20T09:24:56;6.10;;;2.78;;
60502;SDS011;51448;51.660;5.824;2023-05-20T09:28:01;5.65;;;2.40;;
60502;SDS011;51448;51.660;5.824;2023-05-20T09:30:59;6.90;;;2.00;;
60502;SDS011;51448;51.660;5.824;2023-05-20T09:33:48;7.15;;;2.50;;
60502;SDS011;51448;51.660;5.824;2023-05-20T09:36:36;7.65;;;2.38;;
60502;SDS011;51448;51.660;5.824;2023-05-20T09:42:34;5.82;;;2.13;;
60502;SDS011;51448;51.660;5.824;2023-05-20T09:45:42;6.10;;;2.05;;
60502;SDS011;51448;51.660;5.824;2023-05-20T09:48:31;5.72;;;2.28;;
60502;SDS011;51448;51.660;5.824;2023-05-20T09:51:22;5.80;;;1.92;;
60502;SDS011;51448;51.660;5.824;2023-05-20T09:57:16;6.22;;;2.15;;
60502;SDS011;51448;51.660;5.824;2023-05-20T10:00:08;6.10;;;2.58;;
60502;SDS011;51448;51.660;5.824;2023-05-20T10:03:00;5.75;;;2.60;;
60502;SDS011;51448;51.660;5.824;2023-05-20T10:05:54;4.75;;;2.30;;
60502;SDS011;51448;51.660;5.824;2023-05-20T10:12:33;5.30;;;2.47;;
60502;SDS011;51448;51.660;5.824;2023-05-20T10:15:53;6.00;;;2.20;;
60502;SDS011;51448;51.660;5.824;2023-05-20T10:22:28;5.93;;;1.98;;
60502;SDS011;51448;51.660;5.824;2023-05-20T10:25:23;6.80;;;2.00;;
60502;SDS011;51448;51.660;5.824;2023-05-20T10:28:26;7.05;;;1.90;;
60502;SDS011;51448;51.660;5.824;2023-05-20T10:31:42;6.57;;;1.75;;
60502;SDS011;51448;51.660;5.824;2023-05-20T10:34:45;4.80;;;1.80;;
60502;SDS011;51448;51.660;5.824;2023-05-20T10:40:34;4.22;;;1.70;;
60502;SDS011;51448;51.660;5.824;2023-05-20T10:43:26;5.47;;;1.75;;
60502;SDS011;51448;51.660;5.824;2023-05-20T10:46:17;9.68;;;2.45;;
60502;SDS011;51448;51.660;5.824;2023-05-20T10:49:24;5.35;;;2.00;;
60502;SDS011;51448;51.660;5.824;2023-05-20T10:52:31;4.32;;;1.80;;
60502;SDS011;51448;51.660;5.824;2023-05-20T10:55:23;4.03;;;1.80;;
60502;SDS011;51448;51.660;5.824;2023-05-20T10:58:11;3.80;;;1.73;;
60502;SDS011;51448;51.660;5.824;2023-05-20T11:01:00;4.63;;;2.03;;
60502;SDS011;51448;51.660;5.824;2023-05-20T11:03:56;4.38;;;1.80;;
60502;SDS011;51448;51.660;5.824;2023-05-20T11:06:56;4.35;;;2.40;;
60502;SDS011;51448;51.660;5.824;2023-05-20T11:09:48;5.53;;;2.38;;
60502;SDS011;51448;51.660;5.824;2023-05-20T11:12:37;6.85;;;2.53;;
60502;SDS011;51448;51.660;5.824;2023-05-20T11:15:26;5.25;;;2.22;;
60502;SDS011;51448;51.660;5.824;2023-05-20T11:18:14;4.45;;;1.85;;
60502;SDS011;51448;51.660;5.824;2023-05-20T11:21:05;5.97;;;2.13;;
60502;SDS011;51448;51.660;5.824;2023-05-20T11:23:53;5.22;;;2.10;;
60502;SDS011;51448;51.660;5.824;2023-05-20T11:26:41;4.30;;;2.10;;
60502;SDS011;51448;51.660;5.824;2023-05-20T11:29:29;5.50;;;1.80;;
60502;SDS011;51448;51.660;5.824;2023-05-20T11:32:18;4.68;;;1.90;;
60502;SDS011;51448;51.660;5.824;2023-05-20T11:35:23;4.53;;;1.88;;
60502;SDS011;51448;51.660;5.824;2023-05-20T11:38:19;5.22;;;2.03;;
60502;SDS011;51448;51.660;5.824;2023-05-20T11:41:08;4.13;;;2.03;;
60502;SDS011;51448;51.660;5.824;2023-05-20T11:44:01;5.15;;;2.08;;
60502;SDS011;51448;51.660;5.824;2023-05-20T11:46:49;5.20;;;2.00;;
60502;SDS011;51448;51.660;5.824;2023-05-20T11:49:47;4.88;;;1.95;;
60502;SDS011;51448;51.660;5.824;2023-05-20T11:52:35;4.43;;;2.30;;
60502;SDS011;51448;51.660;5.824;2023-05-20T11:55:43;4.00;;;1.90;;
60502;SDS011;51448;51.660;5.824;2023-05-20T11:58:52;4.15;;;2.00;;
60502;SDS011;51448;51.660;5.824;2023-05-20T12:01:51;5.10;;;1.85;;
60502;SDS011;51448;51.660;5.824;2023-05-20T12:04:39;4.72;;;1.90;;
60502;SDS011;51448;51.660;5.824;2023-05-20T12:07:30;7.23;;;2.20;;
60502;SDS011;51448;51.660;5.824;2023-05-20T12:10:18;5.10;;;1.80;;
60502;SDS011;51448;51.660;5.824;2023-05-20T12:13:06;5.57;;;2.20;;
60502;SDS011;51448;51.660;5.824;2023-05-20T12:15:59;4.95;;;2.10;;
60502;SDS011;51448;51.660;5.824;2023-05-20T12:18:53;5.88;;;1.88;;
60502;SDS011;51448;51.660;5.824;2023-05-20T12:21:41;5.88;;;2.13;;
60502;SDS011;51448;51.660;5.824;2023-05-20T12:24:33;4.90;;;2.28;;
60502;SDS011;51448;51.660;5.824;2023-05-20T12:27:24;4.45;;;1.95;;
60502;SDS011;51448;51.660;5.824;2023-05-20T12:30:14;5.97;;;1.70;;
60502;SDS011;51448;51.660;5.824;2023-05-20T12:33:04;5.05;;;1.80;;
60502;SDS011;51448;51.660;5.824;2023-05-20T12:35:58;6.28;;;2.45;;
60502;SDS011;51448;51.660;5.824;2023-05-20T12:38:49;4.68;;;1.75;;
60502;SDS011;51448;51.660;5.824;2023-05-20T12:41:37;6.07;;;2.20;;
60502;SDS011;51448;51.660;5.824;2023-05-20T12:44:26;4.97;;;2.03;;
60502;SDS011;51448;51.660;5.824;2023-05-20T12:47:14;4.80;;;1.80;;
60502;SDS011;51448;51.660;5.824;2023-05-20T12:50:02;4.43;;;1.90;;
60502;SDS011;51448;51.660;5.824;2023-05-20T12:52:50;3.83;;;2.20;;
60502;SDS011;51448;51.660;5.824;2023-05-20T12:55:39;6.03;;;2.47;;
60502;SDS011;51448;51.660;5.824;2023-05-20T12:58:27;4.63;;;1.88;;
60502;SDS011;51448;51.660;5.824;2023-05-20T13:01:15;3.55;;;1.63;;
60502;SDS011;51448;51.660;5.824;2023-05-20T13:04:03;5.15;;;2.28;;
60502;SDS011;51448;51.660;5.824;2023-05-20T13:06:52;3.97;;;1.83;;
60502;SDS011;51448;51.660;5.824;2023-05-20T13:09:40;4.25;;;1.67;;
60502;SDS011;51448;51.660;5.824;2023-05-20T13:12:28;4.38;;;1.60;;
60502;SDS011;51448;51.660;5.824;2023-05-20T13:15:16;6.80;;;1.98;;
60502;SDS011;51448;51.660;5.824;2023-05-20T13:18:04;3.70;;;1.75;;
60502;SDS011;51448;51.660;5.824;2023-05-20T13:20:55;4.97;;;2.00;;
60502;SDS011;51448;51.660;5.824;2023-05-20T13:23:46;6.90;;;2.17;;
60502;SDS011;51448;51.660;5.824;2023-05-20T13:26:36;3.72;;;1.65;;
60502;SDS011;51448;51.660;5.824;2023-05-20T13:29:26;3.83;;;1.75;;
60502;SDS011;51448;51.660;5.824;2023-05-20T13:32:14;3.78;;;1.67;;
60502;SDS011;51448;51.660;5.824;2023-05-20T13:38:54;4.95;;;2.10;;
60502;SDS011;51448;51.660;5.824;2023-05-20T13:42:01;5.13;;;2.10;;
60502;SDS011;51448;51.660;5.824;2023-05-20T13:44:55;6.45;;;2.13;;
60502;SDS011;51448;51.660;5.824;2023-05-20T13:48:09;4.00;;;1.80;;
60502;SDS011;51448;51.660;5.824;2023-05-20T13:50:58;4.00;;;1.98;;
60502;SDS011;51448;51.660;5.824;2023-05-20T13:54:04;4.07;;;1.77;;
60502;SDS011;51448;51.660;5.824;2023-05-20T13:57:08;4.65;;;1.70;;
60502;SDS011;51448;51.660;5.824;2023-05-20T14:00:19;4.57;;;2.00;;
60502;SDS011;51448;51.660;5.824;2023-05-20T14:03:35;4.22;;;1.67;;
60502;SDS011;51448;51.660;5.824;2023-05-20T14:07:05;5.90;;;1.70;;
60502;SDS011;51448;51.660;5.824;2023-05-20T14:09:56;3.75;;;1.77;;
60502;SDS011;51448;51.660;5.824;2023-05-20T14:12:44;4.35;;;1.98;;
60502;SDS011;51448;51.660;5.824;2023-05-20T14:15:34;5.35;;;1.83;;
60502;SDS011;51448;51.660;5.824;2023-05-20T14:18:23;5.57;;;1.95;;
60502;SDS011;51448;51.660;5.824;2023-05-20T14:21:10;5.22;;;1.73;;
60502;SDS011;51448;51.660;5.824;2023-05-20T14:23:59;3.65;;;1.70;;
60502;SDS011;51448;51.660;5.824;2023-05-20T14:26:47;7.50;;;1.80;;
60502;SDS011;51448;51.660;5.824;2023-05-20T14:29:35;5.25;;;1.77;;
60502;SDS011;51448;51.660;5.824;2023-05-20T14:32:23;4.78;;;1.80;;
60502;SDS011;51448;51.660;5.824;2023-05-20T14:35:11;4.72;;;1.60;;
60502;SDS011;51448;51.660;5.824;2023-05-20T14:37:59;3.67;;;1.50;;
60502;SDS011;51448;51.660;5.824;2023-05-20T14:40:47;4.47;;;1.88;;
60502;SDS011;51448;51.660;5.824;2023-05-20T14:43:35;4.68;;;1.75;;
60502;SDS011;51448;51.660;5.824;2023-05-20T14:46:23;5.07;;;1.90;;
60502;SDS011;51448;51.660;5.824;2023-05-20T14:49:11;4.30;;;1.90;;
60502;SDS011;51448;51.660;5.824;2023-05-20T14:51:59;4.63;;;2.13;;
60502;SDS011;51448;51.660;5.824;2023-05-20T14:54:47;5.88;;;1.90;;
60502;SDS011;51448;51.660;5.824;2023-05-20T14:57:35;5.78;;;1.80;;
60502;SDS011;51448;51.660;5.824;2023-05-20T15:00:23;4.93;;;1.75;;
60502;SDS011;51448;51.660;5.824;2023-05-20T15:03:10;4.88;;;1.85;;
60502;SDS011;51448;51.660;5.824;2023-05-20T15:05:59;3.85;;;1.77;;
60502;SDS011;51448;51.660;5.824;2023-05-20T15:08:46;4.10;;;1.60;;
60502;SDS011;51448;51.660;5.824;2023-05-20T15:11:34;4.60;;;1.63;;
60502;SDS011;51448;51.660;5.824;2023-05-20T15:14:22;4.38;;;1.65;;
60502;SDS011;51448;51.660;5.824;2023-05-20T15:17:10;5.03;;;2.58;;
60502;SDS011;51448;51.660;5.824;2023-05-20T15:19:58;4.90;;;1.92;;
60502;SDS011;51448;51.660;5.824;2023-05-20T15:22:46;6.65;;;2.22;;
60502;SDS011;51448;51.660;5.824;2023-05-20T15:25:34;6.90;;;2.40;;
60502;SDS011;51448;51.660;5.824;2023-05-20T15:28:23;5.70;;;3.63;;
60502;SDS011;51448;51.660;5.824;2023-05-20T15:31:11;7.38;;;1.88;;
60502;SDS011;51448;51.660;5.824;2023-05-20T15:33:59;3.45;;;1.65;;
60502;SDS011;51448;51.660;5.824;2023-05-20T15:36:46;4.93;;;1.90;;
60502;SDS011;51448;51.660;5.824;2023-05-20T15:39:37;4.72;;;1.48;;
60502;SDS011;51448;51.660;5.824;2023-05-20T15:42:25;6.32;;;2.25;;
60502;SDS011;51448;51.660;5.824;2023-05-20T15:45:13;6.97;;;1.73;;
60502;SDS011;51448;51.660;5.824;2023-05-20T15:48:01;4.55;;;1.50;;
60502;SDS011;51448;51.660;5.824;2023-05-20T15:50:49;3.15;;;1.40;;
60502;SDS011;51448;51.660;5.824;2023-05-20T15:53:37;5.00;;;1.60;;
60502;SDS011;51448;51.660;5.824;2023-05-20T15:56:27;3.50;;;1.33;;
60502;SDS011;51448;51.660;5.824;2023-05-20T15:59:16;6.45;;;1.83;;
60502;SDS011;51448;51.660;5.824;2023-05-20T16:02:04;4.15;;;1.30;;
60502;SDS011;51448;51.660;5.824;2023-05-20T16:04:52;6.55;;;2.42;;
60502;SDS011;51448;51.660;5.824;2023-05-20T16:07:42;3.20;;;1.33;;
60502;SDS011;51448;51.660;5.824;2023-05-20T16:10:30;4.78;;;1.52;;
60502;SDS011;51448;51.660;5.824;2023-05-20T16:13:21;4.43;;;1.57;;
60502;SDS011;51448;51.660;5.824;2023-05-20T16:16:10;4.45;;;1.63;;
60502;SDS011;51448;51.660;5.824;2023-05-20T16:19:00;5.43;;;1.60;;
60502;SDS011;51448;51.660;5.824;2023-05-20T16:21:47;4.55;;;1.38;;
60502;SDS011;51448;51.660;5.824;2023-05-20T16:24:35;5.00;;;1.52;;
60502;SDS011;51448;51.660;5.824;2023-05-20T16:27:23;3.58;;;1.40;;
60502;SDS011;51448;51.660;5.824;2023-05-20T16:30:11;4.53;;;1.20;;
60502;SDS011;51448;51.660;5.824;2023-05-20T16:32:59;3.33;;;1.27;;
60502;SDS011;51448;51.660;5.824;2023-05-20T16:35:47;6.22;;;1.27;;
60502;SDS011;51448;51.660;5.824;2023-05-20T16:38:35;6.35;;;1.30;;
60502;SDS011;51448;51.660;5.824;2023-05-20T16:41:23;2.85;;;1.15;;
60502;SDS011;51448;51.660;5.824;2023-05-20T16:44:11;9.35;;;1.40;;
60502;SDS011;51448;51.660;5.824;2023-05-20T16:46:59;5.47;;;2.22;;
60502;SDS011;51448;51.660;5.824;2023-05-20T16:49:46;4.00;;;1.42;;
60502;SDS011;51448;51.660;5.824;2023-05-20T16:52:34;5.28;;;1.60;;
60502;SDS011;51448;51.660;5.824;2023-05-20T16:55:25;4.82;;;1.48;;
60502;SDS011;51448;51.660;5.824;2023-05-20T16:58:13;3.42;;;1.50;;
60502;SDS011;51448;51.660;5.824;2023-05-20T17:01:01;4.57;;;1.20;;
60502;SDS011;51448;51.660;5.824;2023-05-20T17:03:49;5.35;;;1.45;;
60502;SDS011;51448;51.660;5.824;2023-05-20T17:06:37;6.38;;;1.38;;
60502;SDS011;51448;51.660;5.824;2023-05-20T17:09:26;4.20;;;1.30;;
60502;SDS011;51448;51.660;5.824;2023-05-20T17:12:15;5.07;;;1.27;;
60502;SDS011;51448;51.660;5.824;2023-05-20T17:15:03;4.25;;;1.38;;
60502;SDS011;51448;51.660;5.824;2023-05-20T17:17:52;4.13;;;1.38;;
60502;SDS011;51448;51.660;5.824;2023-05-20T17:20:40;5.00;;;1.50;;
60502;SDS011;51448;51.660;5.824;2023-05-20T17:23:28;5.32;;;1.40;;
60502;SDS011;51448;51.660;5.824;2023-05-20T17:26:16;2.80;;;1.25;;
60502;SDS011;51448;51.660;5.824;2023-05-20T17:29:04;2.60;;;1.10;;
60502;SDS011;51448;51.660;5.824;2023-05-20T17:31:52;6.38;;;1.60;;